Time;durP1;ratioP1;P1;durP2;ratioP2;P2;SDS_P1;SDS_P2;PMS_P1;PMS_P2;Temp;Humidity;BMP_temperature;BMP_pressure;BME280_temperature;BME280_humidity;BME280_pressure;Samples;Min_cycle;Max_cycle;Signal;HPM_P1;HPM_P2
2021/12/21 00:01:18;;;;;;;12.97;4.13;;;;;;;-145.69;100.00;73659.53;5052589;28;20544;-77
2021/12/21 00:03:46;;;;;;;9.97;3.67;;;;;;;-145.69;100.00;73667.50;5055612;28;20662;-77
2021/12/21 00:06:16;;;;;;;8.50;4.13;;;;;;;-145.69;100.00;73677.47;5056629;28;20199;-77
2021/12/21 00:08:45;;;;;;;11.60;3.87;;;;;;;-145.69;100.00;73667.50;5056228;28;20294;-77
2021/12/21 00:11:22;;;;;;;14.43;4.20;;;;;;;-145.69;100.00;73639.63;5056350;28;20230;-77
2021/12/21 00:14:10;;;;;;;24.40;4.37;;;;;;;-145.69;100.00;73659.53;5056122;28;20329;-77
2021/12/21 00:17:02;;;;;;;8.73;3.63;;;;;;;-145.69;100.00;73691.38;5055888;28;20208;-78
2021/12/21 00:23:00;;;;;;;18.03;4.90;;;;;;;-145.69;100.00;73741.16;5019812;28;20704;-77
2021/12/21 00:25:24;;;;;;;18.67;6.10;;;;;;;-145.69;100.00;73773.03;5055834;28;20210;-77
2021/12/21 00:27:52;;;;;;;12.27;4.70;;;;;;;-145.69;100.00;73761.06;5055950;28;20685;-77
2021/12/21 00:30:22;;;;;;;8.67;3.67;;;;;;;-145.69;100.00;73802.88;5055896;28;20663;-77
2021/12/21 00:32:51;;;;;;;16.67;4.53;;;;;;;-145.69;100.00;73820.81;5055871;28;20195;-77
2021/12/21 00:35:19;;;;;;;15.23;5.40;;;;;;;-145.69;100.00;73852.66;5054898;28;20481;-77
2021/12/21 00:37:47;;;;;;;15.10;5.03;;;;;;;-145.69;100.00;73852.66;5055975;28;20203;-76
2021/12/21 00:40:14;;;;;;;12.03;4.53;;;;;;;-145.69;100.00;73856.66;5055908;28;20199;-77
2021/12/21 00:42:43;;;;;;;14.70;4.23;;;;;;;-145.69;100.00;73892.50;5055711;28;20237;-77
2021/12/21 00:45:14;;;;;;;14.83;4.73;;;;;;;-145.69;100.00;73884.53;5055807;28;20207;-77
2021/12/21 00:47:48;;;;;;;13.40;4.23;;;;;;;-145.69;100.00;73900.44;5055246;28;20666;-77
2021/12/21 00:50:19;;;;;;;13.67;4.50;;;;;;;-145.69;100.00;73894.47;5055729;28;20203;-77
2021/12/21 00:52:48;;;;;;;15.07;5.00;;;;;;;-145.69;100.00;73902.44;5055710;28;20250;-77
2021/12/21 00:55:15;;;;;;;11.50;4.57;;;;;;;-145.69;100.00;73916.38;5055640;28;20209;-76
2021/12/21 00:57:41;;;;;;;14.13;4.97;;;;;;;-145.69;100.00;73862.63;5055346;28;20239;-77
2021/12/21 01:00:12;;;;;;;17.03;4.63;;;;;;;-145.69;100.00;73846.69;5055712;28;20207;-77
2021/12/21 01:02:41;;;;;;;15.70;5.13;;;;;;;-145.69;100.00;73838.72;5055337;28;20200;-77
2021/12/21 01:05:15;;;;;;;22.57;5.33;;;;;;;-145.69;100.00;73814.84;5055143;28;20211;-77
2021/12/21 01:07:45;;;;;;;20.53;5.97;;;;;;;-145.69;100.00;73822.81;5055206;28;20601;-76
2021/12/21 01:13:13;;;;;;;18.87;5.17;;;;;;;-145.69;100.00;73868.59;5054998;28;20245;-77
2021/12/21 01:15:57;;;;;;;13.33;5.23;;;;;;;-145.69;100.00;73872.56;5054415;28;20672;-76
2021/12/21 01:18:32;;;;;;;18.70;5.17;;;;;;;-145.69;100.00;73900.44;5054666;28;20203;-77
2021/12/21 01:21:09;;;;;;;8.90;4.20;;;;;;;-145.69;100.00;73934.31;5054823;28;20609;-77
2021/12/21 01:26:28;;;;;;;13.40;5.37;;;;;;;-145.69;100.00;73938.28;5045868;28;20202;-77
2021/12/21 01:29:07;;;;;;;21.30;6.57;;;;;;;-145.69;100.00;73954.22;5053993;28;20526;-77
2021/12/21 01:31:45;;;;;;;16.17;5.03;;;;;;;-145.69;100.00;73940.28;5054977;28;20490;-77
2021/12/21 01:34:25;;;;;;;15.43;4.70;;;;;;;-145.69;100.00;73954.22;5054769;28;20253;-77
2021/12/21 01:36:57;;;;;;;11.80;4.37;;;;;;;-145.69;100.00;73954.22;5054889;28;20211;-77
2021/12/21 01:42:20;;;;;;;19.47;5.40;;;;;;;-145.69;100.00;73954.22;5054748;28;20616;-77
2021/12/21 01:50:15;;;;;;;13.17;5.07;;;;;;;-145.69;100.00;73956.19;5054562;28;20737;-77
2021/12/21 01:52:49;;;;;;;17.87;5.67;;;;;;;-145.69;100.00;73934.31;5054500;28;20227;-77
2021/12/21 01:55:17;;;;;;;21.47;6.07;;;;;;;-145.69;100.00;73954.22;5054529;28;20202;-77
2021/12/21 01:57:44;;;;;;;13.83;5.30;;;;;;;-145.69;100.00;73966.16;5054294;28;20685;-77
2021/12/21 02:00:13;;;;;;;14.17;4.53;;;;;;;-145.69;100.00;73972.13;5054070;28;20693;-77
2021/12/21 02:02:45;;;;;;;17.53;4.73;;;;;;;-145.69;100.00;73974.13;5054504;28;20222;-77
2021/12/21 02:05:14;;;;;;;13.53;4.50;;;;;;;-145.69;100.00;73990.06;5054414;28;20329;-77
2021/12/21 02:07:41;;;;;;;15.17;5.30;;;;;;;-145.69;100.00;73994.03;5054264;28;20199;-77
2021/12/21 02:10:11;;;;;;;12.73;4.63;;;;;;;-145.69;100.00;73978.09;5054163;28;20204;-77
2021/12/21 02:12:41;;;;;;;16.87;4.40;;;;;;;-145.69;100.00;73998.03;5053676;28;20250;-76
2021/12/21 02:15:10;;;;;;;14.33;4.70;;;;;;;-145.69;100.00;74009.97;5053970;28;20199;-77
2021/12/21 02:18:04;;;;;;;13.07;4.77;;;;;;;-145.69;100.00;74011.97;5053862;28;20200;-76
2021/12/21 02:20:42;;;;;;;18.93;4.97;;;;;;;-145.69;100.00;73982.09;5053851;28;20566;-77
2021/12/21 02:23:16;;;;;;;19.77;5.87;;;;;;;-145.69;100.00;73922.34;5053742;28;20290;-77
2021/12/21 02:26:07;;;;;;;13.40;5.47;;;;;;;-145.69;100.00;73934.31;5053794;28;20293;-77
2021/12/21 02:31:16;;;;;;;21.80;7.17;;;;;;;-145.69;100.00;73890.50;5052398;28;20223;-77
2021/12/21 02:33:45;;;;;;;21.00;8.17;;;;;;;-145.69;100.00;73900.44;5053810;28;20213;-77
2021/12/21 02:36:12;;;;;;;41.03;12.40;;;;;;;-145.69;100.00;73918.38;5053759;28;20570;-77
2021/12/21 02:38:39;;;;;;;32.57;9.07;;;;;;;-145.69;100.00;73922.34;5053667;28;20257;-78
2021/12/21 02:41:07;;;;;;;27.37;7.60;;;;;;;-145.69;100.00;73942.25;5053642;28;20556;-78
2021/12/21 02:43:36;;;;;;;24.30;6.07;;;;;;;-145.69;100.00;73954.22;5053493;28;20203;-77
2021/12/21 02:46:02;;;;;;;20.50;5.50;;;;;;;-145.69;100.00;73956.19;5053110;28;20276;-77
2021/12/21 02:48:29;;;;;;;18.93;6.70;;;;;;;-145.69;100.00;73942.25;5053303;28;20685;-76
2021/12/21 02:50:55;;;;;;;16.43;5.77;;;;;;;-145.69;100.00;73964.16;5053418;28;20218;-77
2021/12/21 02:53:23;;;;;;;17.53;5.80;;;;;;;-145.69;100.00;73952.22;5053430;28;20204;-76
2021/12/21 02:55:50;;;;;;;25.77;6.07;;;;;;;-145.69;100.00;73934.31;5053310;28;20203;-77
2021/12/21 02:58:16;;;;;;;20.40;5.80;;;;;;;-145.69;100.00;73950.22;5052937;28;20204;-76
2021/12/21 03:00:43;;;;;;;16.60;6.47;;;;;;;-145.69;100.00;73938.28;5052973;28;20227;-77
2021/12/21 03:03:13;;;;;;;16.30;6.30;;;;;;;-145.69;100.00;73946.25;5053262;28;20622;-76
2021/12/21 03:05:45;;;;;;;26.97;7.40;;;;;;;-145.69;100.00;73946.25;5053335;28;20290;-77
2021/12/21 03:08:16;;;;;;;17.07;6.77;;;;;;;-145.69;100.00;73970.16;5052853;28;20658;-77
2021/12/21 03:10:59;;;;;;;16.63;6.83;;;;;;;-145.69;100.00;73974.13;5053026;28;20237;-77
2021/12/21 03:16:10;;;;;;;16.30;7.13;;;;;;;-145.69;100.00;73886.50;5053093;28;20680;-77
2021/12/21 03:18:36;;;;;;;23.57;7.67;;;;;;;-145.69;100.00;73890.50;5052937;28;20211;-77
2021/12/21 03:21:03;;;;;;;22.00;7.60;;;;;;;-145.69;100.00;73940.28;5052986;28;20203;-77
2021/12/21 03:23:30;;;;;;;18.17;7.07;;;;;;;-145.69;100.00;73958.19;5052748;28;20207;-77
2021/12/21 03:25:58;;;;;;;14.63;6.57;;;;;;;-145.69;100.00;73978.09;5053031;28;20290;-77
2021/12/21 03:28:24;;;;;;;20.57;6.73;;;;;;;-145.69;100.00;73970.16;5053219;28;20203;-77
2021/12/21 03:30:51;;;;;;;18.97;7.07;;;;;;;-145.69;100.00;73944.25;5053006;28;20199;-77
2021/12/21 03:33:17;;;;;;;19.80;7.17;;;;;;;-145.69;100.00;73962.19;5052869;28;20231;-77
2021/12/21 03:35:44;;;;;;;19.07;6.63;;;;;;;-145.69;100.00;73972.13;5052870;28;20203;-77
2021/12/21 03:38:10;;;;;;;20.63;7.07;;;;;;;-145.69;100.00;73992.03;5051530;28;20218;-77
2021/12/21 03:40:37;;;;;;;19.70;7.10;;;;;;;-145.69;100.00;73990.06;5051742;28;20597;-77
2021/12/21 03:43:05;;;;;;;19.07;7.07;;;;;;;-145.69;100.00;73978.09;5052833;28;20681;-76
2021/12/21 03:45:35;;;;;;;24.20;7.17;;;;;;;-145.69;100.00;73970.16;5052576;28;20557;-77
2021/12/21 03:48:02;;;;;;;21.83;7.17;;;;;;;-145.69;100.00;73952.22;5052699;28;20204;-77
2021/12/21 03:50:29;;;;;;;19.90;6.63;;;;;;;-145.69;100.00;73974.13;5052605;28;20627;-77
2021/12/21 03:52:55;;;;;;;22.03;6.60;;;;;;;-145.69;100.00;73988.06;5052330;28;20231;-77
2021/12/21 03:55:22;;;;;;;21.33;7.23;;;;;;;-145.69;100.00;73994.03;5052948;28;20593;-77
2021/12/21 03:57:48;;;;;;;21.50;6.93;;;;;;;-145.69;100.00;74017.94;5052661;28;20218;-76
2021/12/21 04:00:18;;;;;;;17.17;6.77;;;;;;;-145.69;100.00;74027.88;5052520;28;20716;-77
2021/12/21 04:02:44;;;;;;;15.63;6.57;;;;;;;-145.69;100.00;74033.84;5052477;28;20253;-77
2021/12/21 04:05:11;;;;;;;12.17;6.10;;;;;;;-145.69;100.00;74047.78;5052460;28;20204;-77
2021/12/21 04:07:37;;;;;;;18.50;6.70;;;;;;;-145.69;100.00;74047.78;5052285;28;20191;-77
2021/12/21 04:10:05;;;;;;;22.63;6.27;;;;;;;-145.69;100.00;74071.69;5052331;28;20207;-77
2021/12/21 04:12:33;;;;;;;16.03;6.03;;;;;;;-145.69;100.00;74075.69;5052074;28;20640;-77
2021/12/21 04:15:03;;;;;;;20.17;5.87;;;;;;;-145.69;100.00;74097.56;5052426;28;20199;-77
2021/12/21 04:17:31;;;;;;;18.53;5.73;;;;;;;-145.69;100.00;74101.56;5052442;28;20245;-77
2021/12/21 04:19:57;;;;;;;13.43;6.03;;;;;;;-145.69;100.00;74119.47;5052559;28;20210;-77
2021/12/21 04:22:24;;;;;;;22.53;6.67;;;;;;;-145.69;100.00;74105.53;5052443;28;20288;-77
2021/12/21 04:24:50;;;;;;;12.70;5.63;;;;;;;-145.69;100.00;74113.50;5052444;28;20210;-77
2021/12/21 04:27:17;;;;;;;17.60;6.97;;;;;;;-145.69;100.00;74101.56;5052322;28;20207;-77
2021/12/21 04:29:44;;;;;;;19.27;6.30;;;;;;;-145.69;100.00;74077.66;5052315;28;20204;-77
2021/12/21 04:32:11;;;;;;;20.70;7.20;;;;;;;-145.69;100.00;74091.59;5052133;28;20232;-77
2021/12/21 04:34:39;;;;;;;15.83;6.17;;;;;;;-145.69;100.00;74095.59;5052527;28;20253;-77
2021/12/21 04:37:06;;;;;;;19.13;7.00;;;;;;;-145.69;100.00;74073.69;5052065;28;20219;-78
2021/12/21 04:39:38;;;;;;;16.07;6.40;;;;;;;-145.69;100.00;74089.63;5052292;28;20199;-77
2021/12/21 04:42:06;;;;;;;18.63;6.30;;;;;;;-145.69;100.00;74103.56;5052203;28;20199;-78
2021/12/21 04:44:33;;;;;;;14.03;6.03;;;;;;;-145.69;100.00;74129.44;5052067;28;20207;-77
2021/12/21 04:46:59;;;;;;;15.80;5.63;;;;;;;-145.69;100.00;74103.56;5052042;28;20714;-78
2021/12/21 04:49:26;;;;;;;24.77;7.63;;;;;;;-145.69;100.00;74083.63;5052964;28;20694;-77
2021/12/21 04:51:54;;;;;;;20.63;6.90;;;;;;;-145.69;100.00;74105.53;5055803;28;20223;-77
2021/12/21 04:54:21;;;;;;;17.10;6.57;;;;;;;-145.69;100.00;74101.56;5055665;28;20234;-77
2021/12/21 04:56:47;;;;;;;18.03;6.60;;;;;;;-145.69;100.00;74089.63;5055561;28;20211;-77
2021/12/21 04:59:14;;;;;;;28.33;7.13;;;;;;;-145.69;100.00;74085.63;5055365;28;20206;-77
2021/12/21 05:01:40;;;;;;;24.63;7.53;;;;;;;-145.69;100.00;74097.56;5055701;28;20195;-77
2021/12/21 05:04:07;;;;;;;31.17;9.82;;;;;;;-145.69;100.00;74095.59;5055085;28;20935;-77
2021/12/21 05:06:33;;;;;;;18.33;7.70;;;;;;;-145.69;100.00;74081.66;5055520;28;20207;-77
2021/12/21 05:09:09;;;;;;;27.90;7.63;;;;;;;-145.69;100.00;74081.66;5055089;28;20597;-77
2021/12/21 05:11:36;;;;;;;26.90;8.53;;;;;;;-145.69;100.00;74057.75;5055240;28;20199;-76
2021/12/21 05:14:06;;;;;;;28.00;7.90;;;;;;;-145.69;100.00;74069.69;5054767;28;20231;-77
2021/12/21 05:16:33;;;;;;;24.47;7.70;;;;;;;-145.69;100.00;74085.63;5055165;28;20724;-78
2021/12/21 05:18:59;;;;;;;31.77;8.23;;;;;;;-145.69;100.00;74089.63;5055328;28;20203;-76
2021/12/21 05:21:26;;;;;;;17.17;6.67;;;;;;;-145.69;100.00;74117.50;5055164;28;20249;-77
2021/12/21 05:23:52;;;;;;;17.50;6.67;;;;;;;-145.69;100.00;74109.53;5055051;28;20207;-77
2021/12/21 05:26:20;;;;;;;17.50;6.60;;;;;;;-145.69;100.00;74105.53;5054947;28;20196;-78
2021/12/21 05:28:47;;;;;;;21.37;6.73;;;;;;;-145.69;100.00;74097.56;5055201;28;20203;-78
2021/12/21 05:31:13;;;;;;;20.00;7.10;;;;;;;-145.69;100.00;74109.53;5054917;28;20257;-78
2021/12/21 05:33:40;;;;;;;20.13;6.50;;;;;;;-145.69;100.00;74107.53;5054978;28;20617;-77
2021/12/21 05:36:06;;;;;;;23.87;7.97;;;;;;;-145.69;100.00;74105.53;5054812;28;20203;-77
2021/12/21 05:38:34;;;;;;;28.93;8.27;;;;;;;-145.69;100.00;74093.59;5054675;28;20550;-77
2021/12/21 05:41:04;;;;;;;24.73;9.50;;;;;;;-145.69;100.00;74089.63;5054693;28;20227;-77
2021/12/21 05:43:32;;;;;;;32.67;10.90;;;;;;;-145.69;100.00;74079.66;5054235;28;20207;-76
2021/12/21 05:45:58;;;;;;;26.57;10.03;;;;;;;-145.69;100.00;74099.56;5054838;28;20558;-77
2021/12/21 05:48:24;;;;;;;33.20;10.93;;;;;;;-145.69;100.00;74091.59;5054780;28;20207;-77
2021/12/21 05:50:51;;;;;;;26.10;10.77;;;;;;;-145.69;100.00;74119.47;5054658;28;20211;-77
2021/12/21 05:53:17;;;;;;;37.67;10.90;;;;;;;-145.69;100.00;74125.44;5054467;28;20227;-77
2021/12/21 05:55:44;;;;;;;36.43;10.93;;;;;;;-145.69;100.00;74161.28;5054348;28;20604;-77
2021/12/21 05:58:10;;;;;;;20.00;8.93;;;;;;;-145.69;100.00;74175.22;5054532;28;20199;-77
2021/12/21 06:00:38;;;;;;;30.90;9.40;;;;;;;-145.69;100.00;74189.19;5053868;28;20210;-77
2021/12/21 06:03:05;;;;;;;21.23;9.73;;;;;;;-145.69;100.00;74181.22;5054723;28;20203;-77
2021/12/21 06:05:31;;;;;;;32.23;10.37;;;;;;;-145.69;100.00;74185.19;5054341;28;20203;-77
2021/12/21 06:07:58;;;;;;;31.60;11.17;;;;;;;-145.69;100.00;74165.28;5053952;28;20206;-77
2021/12/21 06:10:29;;;;;;;31.37;10.90;;;;;;;-145.69;100.00;74165.28;5054350;28;20215;-77
2021/12/21 06:13:21;;;;;;;45.40;16.50;;;;;;;-145.69;100.00;74179.22;5053968;28;20247;-77
2021/12/21 06:16:07;;;;;;;59.43;21.33;;;;;;;-145.69;100.00;74185.19;5054163;28;20294;-77
2021/12/21 06:26:56;;;;;;;27.50;10.93;;;;;;;-145.69;100.00;74195.16;5053890;28;20230;-78
2021/12/21 06:29:22;;;;;;;32.43;9.73;;;;;;;-145.69;100.00;74189.19;5053531;28;20257;-77
2021/12/21 06:31:51;;;;;;;33.03;10.77;;;;;;;-145.69;100.00;74127.44;5053794;28;20210;-77
2021/12/21 06:34:17;;;;;;;18.53;7.17;;;;;;;-145.69;100.00;74011.97;5053765;28;20206;-77
2021/12/21 06:36:44;;;;;;;24.10;9.27;;;;;;;-145.69;100.00;74041.81;5053600;28;20195;-77
2021/12/21 06:39:11;;;;;;;25.03;8.50;;;;;;;-145.69;100.00;74013.94;5053599;28;20257;-77
2021/12/21 06:41:38;;;;;;;19.23;7.77;;;;;;;-145.69;100.00;73994.03;5053661;28;20211;-77
2021/12/21 06:44:05;;;;;;;25.63;8.03;;;;;;;-145.69;100.00;73950.22;5053775;28;20199;-77
2021/12/21 06:46:49;;;;;;;21.20;8.30;;;;;;;-145.69;100.00;73926.34;5053492;28;20279;-77
2021/12/21 06:52:02;;;;;;;36.33;12.30;;;;;;;-145.69;100.00;73982.09;5053380;28;20202;-77
2021/12/21 06:54:29;;;;;;;25.73;10.63;;;;;;;-145.69;100.00;73998.03;5053575;28;20199;-77
2021/12/21 06:56:56;;;;;;;24.53;9.07;;;;;;;-145.69;100.00;74009.97;5053264;28;20257;-77
2021/12/21 06:59:22;;;;;;;29.83;12.00;;;;;;;-145.69;100.00;74033.84;5052696;28;20443;-77
2021/12/21 07:01:49;;;;;;;24.90;10.37;;;;;;;-145.69;100.00;74063.72;5053317;28;20601;-77
2021/12/21 07:04:18;;;;;;;17.23;6.60;;;;;;;-145.69;100.00;74087.63;5053153;28;20200;-77
2021/12/21 07:06:46;;;;;;;12.73;6.27;;;;;;;-145.69;100.00;74097.56;5053126;28;20304;-77
2021/12/21 07:09:18;;;;;;;25.67;10.77;;;;;;;-145.69;100.00;74113.50;5053291;28;20210;-77
2021/12/21 07:11:47;;;;;;;29.17;10.53;;;;;;;-145.69;100.00;74131.44;5052572;28;20207;-78
2021/12/21 07:19:45;;;;;;;26.37;10.30;;;;;;;-145.69;100.00;74171.25;5053129;28;20240;-76
2021/12/21 07:22:12;;;;;;;27.03;11.50;;;;;;;-145.69;100.00;74183.19;5053134;28;20206;-77
2021/12/21 07:24:39;;;;;;;21.80;9.43;;;;;;;-145.69;100.00;74201.13;5053012;28;20214;-77
2021/12/21 07:27:06;;;;;;;27.43;11.13;;;;;;;-145.69;100.00;74221.03;5052755;28;20207;-77
2021/12/21 07:29:33;;;;;;;29.50;10.50;;;;;;;-145.69;100.00;74215.06;5052261;28;20208;-77
2021/12/21 07:31:59;;;;;;;26.53;9.70;;;;;;;-145.69;100.00;74221.03;5052717;28;20219;-76
2021/12/21 07:34:26;;;;;;;27.77;9.70;;;;;;;-145.69;100.00;74225.03;5053150;28;20280;-77
2021/12/21 07:36:53;;;;;;;25.60;9.70;;;;;;;-145.69;100.00;74229.00;5052630;28;20554;-77
2021/12/21 07:39:20;;;;;;;27.77;10.40;;;;;;;-145.69;100.00;74232.97;5052877;28;20222;-77
2021/12/21 07:41:47;;;;;;;26.70;9.67;;;;;;;-145.69;100.00;74238.97;5052102;28;20673;-76
2021/12/21 07:44:13;;;;;;;23.90;9.80;;;;;;;-145.69;100.00;74250.91;5050875;28;20261;-77
2021/12/21 07:46:41;;;;;;;23.37;9.17;;;;;;;-145.69;100.00;74250.91;5050435;28;20203;-77
2021/12/21 07:49:07;;;;;;;26.77;9.80;;;;;;;-145.69;100.00;74232.97;5050812;28;20290;-77
2021/12/21 07:51:34;;;;;;;27.67;10.00;;;;;;;-145.69;100.00;74231.00;5050764;28;20613;-77
2021/12/21 07:54:02;;;;;;;23.73;9.13;;;;;;;-145.69;100.00;74213.06;5050461;28;20702;-77
2021/12/21 07:56:30;;;;;;;24.37;10.50;;;;;;;-145.69;100.00;74217.06;5051013;28;20572;-77
2021/12/21 07:58:57;;;;;;;23.63;9.57;;;;;;;-145.69;100.00;74201.13;5052573;28;20198;-77
2021/12/21 08:01:24;;;;;;;24.63;9.70;;;;;;;-145.69;100.00;74207.09;5052699;28;20210;-77
2021/12/21 08:03:53;;;;;;;22.00;9.10;;;;;;;-145.69;100.00;74205.09;5052487;28;20196;-77
2021/12/21 08:06:19;;;;;;;20.13;8.73;;;;;;;-145.69;100.00;74207.09;5052371;28;20279;-77
2021/12/21 08:08:48;;;;;;;25.60;9.97;;;;;;;-145.69;100.00;74201.13;5052304;28;20195;-78
2021/12/21 08:11:28;;;;;;;31.83;9.70;;;;;;;-145.69;100.00;74201.13;5052576;28;20199;-76
2021/12/21 08:13:56;;;;;;;25.93;10.30;;;;;;;-145.69;100.00;74183.19;5052251;28;20650;-78
2021/12/21 08:16:23;;;;;;;22.63;9.30;;;;;;;-145.69;100.00;74177.22;5052318;28;20235;-77
2021/12/21 08:18:49;;;;;;;27.23;9.80;;;;;;;-145.69;100.00;74163.28;5052420;28;20212;-77
2021/12/21 08:21:18;;;;;;;19.27;7.57;;;;;;;-145.69;100.00;74163.28;5052327;28;20195;-77
2021/12/21 08:23:44;;;;;;;14.97;6.40;;;;;;;-145.69;100.00;74163.28;5054138;28;20249;-77
2021/12/21 08:26:11;;;;;;;19.37;6.80;;;;;;;-145.69;100.00;74157.31;5056353;28;20200;-76
2021/12/21 08:28:39;;;;;;;22.63;7.23;;;;;;;-145.69;100.00;74141.38;5056099;28;20650;-78
2021/12/21 08:31:09;;;;;;;20.40;6.27;;;;;;;-145.69;100.00;74113.50;5055879;28;20202;-77
2021/12/21 08:33:36;;;;;;;20.97;8.10;;;;;;;-145.69;100.00;74097.56;5055862;28;20702;-77
2021/12/21 08:36:03;;;;;;;18.10;6.30;;;;;;;-145.69;100.00;74093.59;5055955;28;20214;-77
2021/12/21 08:38:31;;;;;;;17.43;6.50;;;;;;;-145.69;100.00;74077.66;5056146;28;20211;-77
2021/12/21 08:40:59;;;;;;;18.87;6.00;;;;;;;-145.69;100.00;74067.72;5056015;28;20207;-77
2021/12/21 08:43:28;;;;;;;15.33;6.13;;;;;;;-145.69;100.00;74063.72;5056023;28;20712;-77
2021/12/21 08:45:56;;;;;;;15.07;5.90;;;;;;;-145.69;100.00;74061.72;5055799;28;20664;-78
2021/12/21 08:48:24;;;;;;;13.70;6.17;;;;;;;-145.69;100.00;74053.78;5055796;28;20199;-77
2021/12/21 08:50:54;;;;;;;25.05;8.98;;;;;;;-145.69;100.00;74041.81;5055191;28;20436;-77
2021/12/21 08:53:21;;;;;;;13.77;6.30;;;;;;;-145.69;100.00;74039.84;5055792;28;20223;-77
2021/12/21 08:55:47;;;;;;;21.50;6.83;;;;;;;-145.69;100.00;74027.88;5055726;28;20199;-77
2021/12/21 08:58:15;;;;;;;13.27;6.20;;;;;;;-145.69;100.00;74015.94;5054038;28;20650;-77
2021/12/21 09:00:42;;;;;;;24.27;6.87;;;;;;;-145.69;100.00;74017.94;5054875;28;20223;-78
2021/12/21 09:03:11;;;;;;;16.33;6.33;;;;;;;-145.69;100.00;74007.97;5055059;28;20214;-78
2021/12/21 09:05:40;;;;;;;25.47;7.30;;;;;;;-145.69;100.00;73986.06;5055368;28;20203;-77
2021/12/21 09:08:07;;;;;;;17.90;6.90;;;;;;;-145.69;100.00;73974.13;5055277;28;20605;-76
2021/12/21 09:10:35;;;;;;;16.83;7.13;;;;;;;-145.69;100.00;73958.19;5055369;28;20200;-77
2021/12/21 09:13:01;;;;;;;19.50;7.90;;;;;;;-145.69;100.00;73932.31;5054930;28;20257;-77
2021/12/21 09:15:30;;;;;;;20.37;6.60;;;;;;;-145.69;100.00;73914.38;5054832;28;20208;-77
2021/12/21 09:17:57;;;;;;;22.20;8.13;;;;;;;-145.69;100.00;73890.50;5054971;28;20257;-76
2021/12/21 09:20:27;;;;;;;17.93;8.07;;;;;;;-145.69;100.00;73882.53;5055089;28;20199;-77
2021/12/21 09:22:57;;;;;;;20.30;7.80;;;;;;;-145.69;100.00;73872.56;5055563;28;20196;-77
2021/12/21 09:25:25;;;;;;;34.47;9.57;;;;;;;-145.69;100.00;73860.63;5054641;28;20204;-76
2021/12/21 09:27:53;;;;;;;16.30;7.57;;;;;;;-145.69;100.00;73870.59;5054581;28;20290;-76
2021/12/21 09:30:21;;;;;;;20.27;7.63;;;;;;;-145.69;100.00;73862.63;5054359;28;20199;-77
2021/12/21 09:32:47;;;;;;;18.80;8.23;;;;;;;-145.69;100.00;73850.69;5055027;28;20200;-77
2021/12/21 09:35:14;;;;;;;18.80;7.47;;;;;;;-145.69;100.00;73852.66;5053672;28;20245;-77
2021/12/21 09:37:42;;;;;;;16.83;7.20;;;;;;;-145.69;100.00;73838.72;5054948;28;20204;-77
2021/12/21 09:40:11;;;;;;;19.57;7.53;;;;;;;-145.69;100.00;73838.72;5054266;28;20326;-77
2021/12/21 09:42:38;;;;;;;19.93;8.27;;;;;;;-145.69;100.00;73810.84;5054697;28;20654;-77
2021/12/21 09:45:06;;;;;;;19.93;7.57;;;;;;;-145.69;100.00;73808.88;5054693;28;20199;-78
2021/12/21 09:47:33;;;;;;;17.07;7.03;;;;;;;-145.69;100.00;73798.91;5054848;28;20253;-77
2021/12/21 09:50:00;;;;;;;23.00;9.63;;;;;;;-145.69;100.00;73767.06;5054361;28;20203;-77
2021/12/21 09:52:29;;;;;;;23.47;9.73;;;;;;;-145.69;100.00;73759.09;5054660;28;20210;-77
2021/12/21 09:54:58;;;;;;;25.47;10.77;;;;;;;-145.69;100.00;73731.22;5054475;28;20227;-76
2021/12/21 09:57:24;;;;;;;25.10;9.43;;;;;;;-145.69;100.00;73719.25;5054423;28;20274;-77
2021/12/21 09:59:52;;;;;;;21.27;8.77;;;;;;;-145.69;100.00;73697.38;5054119;28;20677;-77
2021/12/21 10:02:21;;;;;;;18.00;8.37;;;;;;;-145.69;100.00;73691.38;5054679;28;20245;-77
2021/12/21 10:04:49;;;;;;;20.80;9.20;;;;;;;-145.69;100.00;73683.44;5054487;28;20213;-77
2021/12/21 10:07:16;;;;;;;20.30;10.27;;;;;;;-145.69;100.00;73665.50;5054503;28;20634;-78
2021/12/21 10:09:43;;;;;;;25.83;8.47;;;;;;;-145.69;100.00;73651.56;5054214;28;20203;-77
2021/12/21 10:12:14;;;;;;;31.60;11.27;;;;;;;-145.69;100.00;73645.59;5054556;28;20261;-77
2021/12/21 10:14:42;;;;;;;27.17;11.20;;;;;;;-145.69;100.00;73635.66;5054473;28;20231;-77
2021/12/21 10:17:10;;;;;;;22.10;10.43;;;;;;;-145.69;100.00;73633.66;5054436;28;20210;-77
2021/12/21 10:19:37;;;;;;;22.43;9.43;;;;;;;-145.69;100.00;73635.66;5054417;28;20298;-77
2021/12/21 10:22:15;;;;;;;23.40;10.03;;;;;;;-145.69;100.00;73629.66;5054357;28;20677;-77
2021/12/21 10:24:49;;;;;;;24.10;8.90;;;;;;;-145.69;100.00;73631.66;5054379;28;20257;-77
2021/12/21 10:27:19;;;;;;;20.47;9.03;;;;;;;-145.69;100.00;73613.75;5054316;28;20203;-77
2021/12/21 10:29:48;;;;;;;28.80;9.70;;;;;;;-145.69;100.00;73611.75;5053871;28;20196;-77
2021/12/21 10:32:24;;;;;;;21.33;9.03;;;;;;;-145.69;100.00;73609.75;5054169;28;20195;-77
2021/12/21 10:34:52;;;;;;;22.07;9.10;;;;;;;-145.69;100.00;73583.88;5053918;28;20230;-78
2021/12/21 10:37:26;;;;;;;31.00;10.40;;;;;;;-145.69;100.00;73567.94;5054053;28;20205;-77
2021/12/21 10:40:04;;;;;;;19.50;8.73;;;;;;;-145.69;100.00;73567.94;5054230;28;20195;-78
2021/12/21 10:42:32;;;;;;;28.27;9.10;;;;;;;-145.69;100.00;73552.03;5054018;28;20290;-77
2021/12/21 10:45:05;;;;;;;26.07;10.33;;;;;;;-145.69;100.00;73546.06;5053692;28;20203;-76
2021/12/21 10:47:31;;;;;;;22.33;10.30;;;;;;;-145.69;100.00;73550.03;5054045;28;20211;-77
2021/12/21 10:50:00;;;;;;;29.33;12.97;;;;;;;-145.69;100.00;73542.06;5053952;28;20265;-77
2021/12/21 10:52:31;;;;;;;35.30;11.83;;;;;;;-145.69;100.00;73544.06;5053870;28;20203;-77
2021/12/21 10:54:58;;;;;;;24.87;9.43;;;;;;;-145.69;100.00;73538.09;5053456;28;20231;-77
2021/12/21 10:57:29;;;;;;;21.53;8.93;;;;;;;-145.69;100.00;73530.13;5053583;28;20226;-77
2021/12/21 11:00:00;;;;;;;25.63;9.13;;;;;;;-145.69;100.00;73522.16;5053479;28;20200;-77
2021/12/21 11:02:31;;;;;;;19.23;8.47;;;;;;;-145.69;100.00;73508.22;5053650;28;20196;-77
2021/12/21 11:05:01;;;;;;;20.20;8.77;;;;;;;-145.69;100.00;73484.34;5053568;28;20204;-78
2021/12/21 11:07:33;;;;;;;20.10;8.47;;;;;;;-145.69;100.00;73486.31;5053515;28;20207;-77
2021/12/21 11:10:10;;;;;;;14.03;5.73;;;;;;;-145.69;100.00;73474.38;5053259;28;20206;-78
2021/12/21 11:12:43;;;;;;;21.93;9.33;;;;;;;-145.69;100.00;73452.47;5053558;28;20642;-78
2021/12/21 11:15:13;;;;;;;21.37;8.63;;;;;;;-145.69;100.00;73436.56;5053290;28;20223;-78
2021/12/21 11:17:40;;;;;;;20.70;8.57;;;;;;;-145.69;100.00;73438.53;5053453;28;20226;-78
2021/12/21 11:20:09;;;;;;;23.87;8.43;;;;;;;-145.69;100.00;73432.56;5053328;28;20203;-78
2021/12/21 11:22:38;;;;;;;17.70;7.40;;;;;;;-145.69;100.00;73422.63;5053349;28;20278;-77
2021/12/21 11:25:06;;;;;;;16.30;7.60;;;;;;;-145.69;100.00;73418.63;5053010;28;20207;-77
2021/12/21 11:27:35;;;;;;;24.37;10.67;;;;;;;-145.69;100.00;73416.66;5053300;28;20203;-77
2021/12/21 11:30:03;;;;;;;17.57;7.80;;;;;;;-145.69;100.00;73410.66;5053066;28;20191;-78
2021/12/21 11:32:34;;;;;;;22.87;8.17;;;;;;;-145.69;100.00;73400.72;5053171;28;20226;-78
2021/12/21 11:37:20;;;;;;;14.80;5.50;;;;;;;-145.69;100.00;73374.84;5052941;28;20321;-78
2021/12/21 11:37:57;;;;;;;8.53;3.93;;;;;;;-145.69;100.00;73368.88;5052902;28;20199;-78
2021/12/21 11:40:27;;;;;;;15.43;5.23;;;;;;;-145.69;100.00;73382.81;5053091;28;20203;-77
2021/12/21 11:43:14;;;;;;;8.30;3.53;;;;;;;-145.69;100.00;73370.84;5052870;28;20196;-77
2021/12/21 11:45:52;;;;;;;8.33;3.57;;;;;;;-145.69;100.00;73358.91;5052488;28;20562;-78
2021/12/21 11:48:28;;;;;;;12.67;5.80;;;;;;;-145.69;100.00;73329.03;5052913;28;20199;-78